A- A+ FrançaisEnglishEspañol中国

Services sur Internet Soldes sur Internet Des idées de cadeaux Météo Météo aéro

La météo à : Autours de vous Paris-Charles-De-Gaulle Tarbes-Lourdes-PyrénéesPau-PyrénéesAlbertville

manche à air

La météo aéronautique pour les pilotes, la préparation du vol avec les METAR (METeorological Aerodrome Report, message d'observation des conditions météorologiques pour l'aviation) et Les TAF (Terminal Aerodrome Forecast : message de prévision à court terme des conditions météorologiques pour l'aviation). Et les autres ressources comme les VAC (Visual Approch Chart) et les NOTAM (Notice To Airman) pour préprer les vols.

Aéroport Hawarden (Royaume-Uni) / OACI EGNR/ IATA CEG

L'altitude de l'aéroport Hawarden est de 14 m = 46 ft. Il est situé à proximité de Hawarden (Royaume-Uni). La météo générale à 5 jours est disponible pour Blacon situé à 4.8 km.

METAR de l'aéroport Hawarden - EGNR

EGNR 102150Z 25006KT 210V290 9999 SCT038 06/02 Q1003

Décodage du METAR de l'aéroport Hawarden (GB)

METAR émis par EGNR le mardi 10 décembre 2019 à 21:50 heure TU. Attention ce METAR est obsolète car il a été émis il y a 56 minutes.

La visibilité est de supérieure à 10 km = supérieure à 6.2 sm.

La température est de 6°C = 43 °F et le point rosée est de 2°C = 36 °F . Ce qui correspond à 76% d'humidité relative.

Le QNH est de 1003 hPa = 29.62 inHg

Vent de 6 kt = 11 km/h, orienté à 250°.

Nuages : Nuages épars à 3800 ft = 1160 mètres.

TAF de l'aéroport Hawarden - EGNR

EGNR 101703Z 1018/1021 27015G28KT 6000 RA BKN014

EGNR 101703Z 1018/1021 27015G28KT 6000 pluie couverture nuageuse fragmentée à 014

Aéroport à proximité de Hawarden

Météo générale à 5 jours à Blacon (4.8 km)Aéroport Liverpool (19 km)Aéroport Tilstock (35 km)Aéroport Sleap (41 km)Aéroport Woodvale (45 km)Aéroport Ternhill (45 km)Aéroport Shawbury (47 km)

Vue aérienne de l'aéroport Hawarden

NOTAM de l'aéroport Hawarden

Les NOTAM sont fournis sans aucune garantie de leur actualité. Le pilote est le seul responsable de la vérification de sa validité avant de l'utiliser opérationnellement pour préparer un vol ou l'utiliser lors de sa navigation.

Pas de NOTAM

Sources des données